createdAt,value
2023-02-06T00:01:03.621Z,102263.00
2023-02-06T00:06:03.940Z,102297.94
2023-02-06T00:11:08.063Z,102288.34
2023-02-06T00:16:24.673Z,102318.78
2023-02-06T00:21:29.354Z,102304.28
2023-02-06T00:26:38.301Z,102338.19
2023-02-06T00:31:39.931Z,102263.97
2023-02-06T00:36:48.582Z,102321.94
2023-02-06T00:42:12.812Z,102305.97
2023-02-06T00:47:12.611Z,102273.56
2023-02-06T00:52:16.670Z,102314.31
2023-02-06T00:57:21.107Z,102330.63
2023-02-06T01:02:24.161Z,102288.03
2023-02-06T01:07:23.598Z,102267.66
2023-02-06T01:12:24.253Z,102302.78
2023-02-06T01:17:25.763Z,102270.97
2023-02-06T01:22:24.342Z,102278.44
2023-02-06T01:27:22.484Z,102301.69
2023-02-06T01:32:25.444Z,102283.91
2023-02-06T01:37:24.319Z,102269.59
2023-02-06T01:42:23.397Z,102263.69
2023-02-06T01:47:22.640Z,102305.78
2023-02-06T01:52:33.181Z,102254.47
2023-02-06T01:57:33.198Z,102248.75
2023-02-06T02:02:32.612Z,102256.78
2023-02-06T02:07:41.698Z,102306.94
2023-02-06T02:12:40.669Z,102325.59
2023-02-06T02:17:56.132Z,102338.50
2023-02-06T02:23:01.403Z,102333.13
2023-02-06T02:28:25.121Z,102270.22
2023-02-06T02:33:37.864Z,102296.78
2023-02-06T02:38:48.185Z,102316.81
2023-02-06T02:44:09.254Z,102319.72
2023-02-06T02:49:17.199Z,102294.91
2023-02-06T02:54:20.685Z,102339.66
2023-02-06T02:59:25.277Z,102272.72
2023-02-06T03:04:44.804Z,102305.53
2023-02-06T03:09:47.427Z,102327.13
2023-02-06T03:15:30.995Z,102304.56
2023-02-06T03:20:31.563Z,102289.03
2023-02-06T03:25:37.023Z,102337.59
2023-02-06T03:30:37.202Z,102310.19
2023-02-06T03:35:37.140Z,102289.34
2023-02-06T03:40:36.636Z,102277.75
2023-02-06T03:45:40.646Z,102314.94
2023-02-06T03:50:40.953Z,102312.38
2023-02-06T03:55:39.645Z,102330.59
2023-02-06T04:00:38.732Z,102330.75
2023-02-06T04:05:38.760Z,102355.69
2023-02-06T04:10:39.117Z,102277.47
2023-02-06T04:15:38.593Z,102340.47
2023-02-06T04:20:41.466Z,102308.97
2023-02-06T04:25:40.778Z,102316.13
2023-02-06T04:30:39.135Z,102305.13
2023-02-06T04:35:37.171Z,102359.94
2023-02-06T04:40:35.622Z,102308.09
2023-02-06T04:45:35.080Z,102307.72
2023-02-06T04:50:34.509Z,102372.94
2023-02-06T04:55:32.262Z,102328.47
2023-02-06T05:00:33.718Z,102310.88
2023-02-06T05:05:32.162Z,102307.38
2023-02-06T05:10:42.132Z,102317.56
2023-02-06T05:15:40.809Z,102376.09
2023-02-06T05:20:38.514Z,102323.28
2023-02-06T05:25:37.110Z,102330.16
2023-02-06T05:30:37.222Z,102348.66
2023-02-06T05:35:35.404Z,102369.97
2023-02-06T05:40:33.987Z,102398.78
2023-02-06T05:45:34.522Z,102387.38
2023-02-06T05:50:33.592Z,102326.69
2023-02-06T05:55:32.503Z,102377.91
2023-02-06T06:00:35.530Z,102379.25
2023-02-06T06:05:34.034Z,102399.97
2023-02-06T06:10:32.506Z,102389.78
2023-02-06T06:15:31.000Z,102384.00
2023-02-06T06:20:29.274Z,102375.25
2023-02-06T06:25:29.096Z,102410.38
2023-02-06T06:30:27.794Z,102404.16
2023-02-06T06:35:26.248Z,102421.13
2023-02-06T06:40:24.591Z,102416.16
2023-02-06T06:45:23.085Z,102407.03
2023-02-06T06:50:20.703Z,102455.47
2023-02-06T06:55:19.689Z,102394.56
2023-02-06T07:00:17.913Z,102463.94
2023-02-06T07:05:19.083Z,102422.63
2023-02-06T07:10:16.605Z,102447.56
2023-02-06T07:15:14.898Z,102469.47
2023-02-06T07:20:12.454Z,102480.41
2023-02-06T07:25:11.733Z,102430.81
2023-02-06T07:30:11.350Z,102445.72
2023-02-06T07:35:10.468Z,102432.09
2023-02-06T07:40:21.429Z,102418.41
2023-02-06T07:45:19.953Z,102487.78
2023-02-06T07:50:18.491Z,102449.28
2023-02-06T07:55:17.262Z,102441.25
2023-02-06T08:00:15.761Z,102471.59
2023-02-06T08:05:14.123Z,102444.31
2023-02-06T08:10:12.264Z,102455.31
2023-02-06T08:15:10.785Z,102475.41
2023-02-06T08:20:10.682Z,102466.16
2023-02-06T08:25:09.742Z,102483.22
2023-02-06T08:30:18.666Z,102522.53
2023-02-06T08:35:16.879Z,102495.84
2023-02-06T08:40:15.264Z,102468.16
2023-02-06T08:45:13.794Z,102498.78
2023-02-06T08:50:23.391Z,102536.50
2023-02-06T08:55:25.203Z,102534.19
2023-02-06T09:00:24.168Z,102497.19
2023-02-06T09:05:22.375Z,102484.53
2023-02-06T09:10:27.545Z,102508.88
2023-02-06T09:15:26.192Z,102476.34
2023-02-06T09:20:26.947Z,102500.19
2023-02-06T09:25:25.051Z,102488.69
2023-02-06T09:30:22.589Z,102485.06
2023-02-06T09:35:20.383Z,102480.00
2023-02-06T09:40:21.791Z,102528.06
2023-02-06T09:45:22.824Z,102483.53
2023-02-06T09:50:31.246Z,102479.47
2023-02-06T09:55:32.098Z,102558.47
2023-02-06T10:00:59.810Z,102565.53
2023-02-06T10:06:19.524Z,102565.34
2023-02-06T10:11:27.236Z,102515.28
2023-02-06T10:16:33.297Z,102557.25
2023-02-06T10:21:42.872Z,102558.31
2023-02-06T10:26:41.280Z,102539.47
2023-02-06T10:31:50.830Z,102543.41
2023-02-06T10:37:20.019Z,102539.72
2023-02-06T10:42:29.488Z,102538.56
2023-02-06T10:47:39.998Z,102482.84
2023-02-06T10:52:39.398Z,102522.13
2023-02-06T10:57:37.386Z,102481.84
2023-02-06T11:02:55.337Z,102477.78
2023-02-06T11:08:14.530Z,102501.75
2023-02-06T11:13:33.900Z,102465.09
2023-02-06T11:18:43.814Z,102462.69
2023-02-06T11:23:42.324Z,102458.53
2023-02-06T11:28:49.606Z,102484.44
2023-02-06T11:33:54.825Z,102450.53
2023-02-06T11:39:01.016Z,102462.19
2023-02-06T11:44:06.681Z,102498.19
2023-02-06T11:49:24.945Z,102489.22
2023-02-06T11:54:28.604Z,102492.22
2023-02-06T11:59:27.220Z,102489.16
2023-02-06T12:04:40.841Z,102460.72
2023-02-06T12:09:38.915Z,102478.28
2023-02-06T12:14:40.638Z,102497.97
2023-02-06T12:19:46.718Z,102480.28
2023-02-06T12:24:49.493Z,102515.22
2023-02-06T12:29:54.234Z,102477.84
2023-02-06T12:34:54.547Z,102515.88
2023-02-06T12:39:53.352Z,102510.34
2023-02-06T12:44:58.288Z,102528.41
2023-02-06T12:50:04.775Z,102542.63
2023-02-06T12:55:36.386Z,102538.97
2023-02-06T13:00:40.870Z,102555.00
2023-02-06T13:05:47.284Z,102523.44
2023-02-06T13:10:46.502Z,102498.91
2023-02-06T13:15:55.501Z,102532.50
2023-02-06T13:21:24.801Z,102570.63
2023-02-06T13:26:44.338Z,102579.81
2023-02-06T13:31:44.677Z,102526.44
2023-02-06T13:36:51.298Z,102524.91
2023-02-06T13:41:50.040Z,102550.84
2023-02-06T13:47:14.866Z,102549.78
2023-02-06T13:52:27.384Z,102599.13
2023-02-06T13:57:34.964Z,102583.28
2023-02-06T14:02:39.605Z,102597.50
2023-02-06T14:07:50.594Z,102566.50
2023-02-06T14:13:15.249Z,102575.88
2023-02-06T14:18:28.699Z,102607.53
2023-02-06T14:23:36.315Z,102622.38
2023-02-06T14:28:49.793Z,102613.84
2023-02-06T14:34:12.972Z,102573.34
2023-02-06T14:39:33.114Z,102643.22
2023-02-06T14:44:31.279Z,102625.63
2023-02-06T14:49:36.900Z,102610.28
2023-02-06T14:54:41.790Z,102613.91
2023-02-06T14:59:51.685Z,102612.84
2023-02-06T15:04:50.724Z,102609.72
2023-02-06T15:10:12.519Z,102622.28
2023-02-06T15:15:20.401Z,102612.00
2023-02-06T15:20:20.909Z,102661.47
2023-02-06T15:25:18.889Z,102673.09
2023-02-06T15:30:22.436Z,102658.44
2023-02-06T15:35:23.853Z,102668.94
2023-02-06T15:40:26.575Z,102716.50
2023-02-06T15:45:30.420Z,102693.66
2023-02-06T15:50:31.440Z,102695.41
2023-02-06T15:55:41.911Z,102717.41
2023-02-06T16:00:39.942Z,102718.84
2023-02-06T16:05:41.985Z,102695.53
2023-02-06T16:10:40.484Z,102748.31
2023-02-06T16:15:40.235Z,102727.13
2023-02-06T16:20:41.180Z,102759.84
2023-02-06T16:25:38.731Z,102775.75
2023-02-06T16:30:37.568Z,102772.03
2023-02-06T16:35:36.350Z,102794.88
2023-02-06T16:40:36.047Z,102811.47
2023-02-06T16:45:34.614Z,102788.59
2023-02-06T16:50:36.821Z,102793.16
2023-02-06T16:55:34.613Z,102783.13
2023-02-06T17:00:33.023Z,102781.28
2023-02-06T17:05:37.445Z,102796.88
2023-02-06T17:10:35.131Z,102795.75
2023-02-06T17:15:33.946Z,102793.66
2023-02-06T17:20:37.518Z,102827.59
2023-02-06T17:25:39.423Z,102809.97
2023-02-06T17:30:40.617Z,102808.16
2023-02-06T17:35:41.280Z,102793.06
2023-02-06T17:40:41.029Z,102794.38
2023-02-06T17:45:41.549Z,102839.81
2023-02-06T17:50:43.781Z,102816.63
2023-02-06T17:55:42.804Z,102842.94
2023-02-06T18:00:44.619Z,102802.44
2023-02-06T18:05:47.444Z,102844.66
2023-02-06T18:10:46.288Z,102842.22
2023-02-06T18:15:57.021Z,102802.53
2023-02-06T18:20:55.775Z,102832.47
2023-02-06T18:26:01.417Z,102823.38
2023-02-06T18:31:02.667Z,102849.84
2023-02-06T18:36:10.845Z,102811.63
2023-02-06T18:41:33.515Z,102838.47
2023-02-06T18:46:35.228Z,102819.78
2023-02-06T18:51:44.089Z,102827.53
2023-02-06T18:56:49.687Z,102816.56
2023-02-06T19:01:50.770Z,102814.47
2023-02-06T19:06:49.616Z,102830.56
2023-02-06T19:11:50.573Z,102838.75
2023-02-06T19:16:52.883Z,102838.06
2023-02-06T19:21:58.155Z,102849.25
2023-02-06T19:27:00.784Z,102858.75
2023-02-06T19:32:03.142Z,102864.09
2023-02-06T19:37:04.762Z,102858.81
2023-02-06T19:42:07.612Z,102843.88
2023-02-06T19:47:06.570Z,102846.44
2023-02-06T19:52:04.603Z,102854.09
2023-02-06T19:57:05.604Z,102866.22
2023-02-06T20:02:03.601Z,102888.94
2023-02-06T20:07:01.571Z,102868.03
2023-02-06T20:12:01.009Z,102868.22
2023-02-06T20:16:59.049Z,102877.97
2023-02-06T20:21:58.918Z,102882.81
2023-02-06T20:27:00.190Z,102863.25
2023-02-06T20:31:59.886Z,102871.19
2023-02-06T20:37:02.683Z,102876.63
2023-02-06T20:42:02.348Z,102854.72
2023-02-06T20:47:03.399Z,102860.75
2023-02-06T20:52:03.467Z,102892.44
2023-02-06T20:57:07.807Z,102859.94
2023-02-06T21:02:12.422Z,102883.53
2023-02-06T21:07:16.203Z,102891.81
2023-02-06T21:12:17.999Z,102905.16
2023-02-06T21:17:18.112Z,102845.34
2023-02-06T21:22:19.321Z,102893.16
2023-02-06T21:27:21.453Z,102867.63
2023-02-06T21:32:21.126Z,102862.78
2023-02-06T21:37:25.116Z,102914.25
2023-02-06T21:42:26.423Z,102876.41
2023-02-06T21:47:24.363Z,102932.41
2023-02-06T21:52:25.462Z,102891.13
2023-02-06T21:57:32.389Z,102882.00
2023-02-06T22:02:38.190Z,102924.22
2023-02-06T22:07:39.692Z,102899.97
2023-02-06T22:12:41.593Z,102874.69
2023-02-06T22:17:50.656Z,102911.03
2023-02-06T22:23:14.321Z,102870.31
2023-02-06T22:28:24.582Z,102913.75
2023-02-06T22:33:26.634Z,102875.81
2023-02-06T22:38:31.170Z,102936.25
2023-02-06T22:43:38.600Z,102906.16
2023-02-06T22:48:36.687Z,102866.63
2023-02-06T22:53:36.040Z,102901.22
2023-02-06T22:58:35.116Z,102921.06
2023-02-06T23:03:32.524Z,102872.00
2023-02-06T23:08:33.580Z,102876.72
2023-02-06T23:13:35.129Z,102884.50
2023-02-06T23:18:36.318Z,102943.81
2023-02-06T23:23:37.968Z,102899.13
2023-02-06T23:28:36.891Z,102884.88
2023-02-06T23:33:39.109Z,102896.88
2023-02-06T23:38:38.555Z,102906.22
2023-02-06T23:43:38.527Z,102924.56
2023-02-06T23:48:38.034Z,102900.97
2023-02-06T23:53:36.117Z,102890.44
2023-02-06T23:58:34.853Z,102899.06
